Time;durP1;ratioP1;P1;durP2;ratioP2;P2;SDS_P1;SDS_P2;PMS_P1;PMS_P2;Temp;Humidity;BMP_temperature;BMP_pressure;BME280_temperature;BME280_humidity;BME280_pressure;Samples;Min_cycle;Max_cycle;Signal;HPM_P1;HPM_P2
2021/12/03 00:00:13;;;;;;;59.63;37.50;;;;;;;-0.90;100.00;100109.09;5113237;27;20027;-59
2021/12/03 00:02:38;;;;;;;62.92;40.10;;;;;;;-0.87;100.00;100102.19;5081855;28;20039;-60
2021/12/03 00:05:04;;;;;;;60.60;36.65;;;;;;;-0.83;100.00;100103.03;5097373;27;20035;-59
2021/12/03 00:07:30;;;;;;;64.10;37.97;;;;;;;-0.78;100.00;100099.56;5101419;27;20027;-59
2021/12/03 00:09:57;;;;;;;76.90;40.00;;;;;;;-0.75;100.00;100096.09;5105887;27;20023;-59
2021/12/03 00:12:22;;;;;;;85.45;39.88;;;;;;;-0.90;100.00;100053.25;5102528;27;20132;-59
2021/12/03 00:14:47;;;;;;;61.92;37.90;;;;;;;-0.77;100.00;100064.28;5098681;27;20557;-59
2021/12/03 00:17:13;;;;;;;77.35;44.92;;;;;;;-0.60;100.00;100089.03;5106546;27;20046;-59
2021/12/03 00:19:38;;;;;;;77.70;43.63;;;;;;;-0.55;100.00;100078.69;5091651;28;20047;-60
2021/12/03 00:22:04;;;;;;;69.38;41.10;;;;;;;-0.51;100.00;100090.69;5109969;27;20080;-59
2021/12/03 00:24:29;;;;;;;66.45;42.78;;;;;;;-0.48;100.00;100088.09;5102916;27;20767;-59
2021/12/03 00:26:54;;;;;;;89.78;46.38;;;;;;;-0.46;100.00;100091.50;5077054;28;20104;-59
2021/12/03 00:29:20;;;;;;;73.13;44.92;;;;;;;-0.44;100.00;100094.88;5084498;28;20912;-59
2021/12/03 00:31:45;;;;;;;71.25;45.80;;;;;;;-0.43;100.00;100095.75;5100383;27;20027;-59
2021/12/03 00:34:10;;;;;;;79.00;44.83;;;;;;;-0.41;100.00;100092.31;5096102;27;20058;-59
2021/12/03 00:36:36;;;;;;;85.38;47.42;;;;;;;-0.36;100.00;100095.69;5111276;27;20030;-59
2021/12/03 00:39:02;;;;;;;91.68;47.83;;;;;;;-0.81;100.00;100018.78;5112747;27;20893;-59
2021/12/03 00:41:34;;;;;;;89.57;51.35;;;;;;;-0.28;100.00;100098.19;5085052;27;20027;-59
2021/12/03 00:44:00;;;;;;;86.68;48.35;;;;;;;-0.21;100.00;100100.69;5078927;28;20122;-59
2021/12/03 00:46:25;;;;;;;82.72;45.58;;;;;;;-0.14;100.00;100091.13;5088695;28;20035;-59
2021/12/03 00:48:52;;;;;;;91.05;46.78;;;;;;;-0.12;100.00;100103.16;5097878;27;20029;-59
2021/12/03 00:51:20;;;;;;;85.10;47.53;;;;;;;-0.09;100.00;100094.50;5093575;27;20031;-59
2021/12/03 00:53:46;;;;;;;82.97;45.08;;;;;;;-0.07;100.00;100103.94;5094385;27;20024;-60
2021/12/03 00:56:11;;;;;;;73.10;44.70;;;;;;;-0.05;100.00;100120.28;5078718;28;20912;-59
2021/12/03 00:58:37;;;;;;;72.72;42.72;;;;;;;0.00;100.00;100115.06;5090735;27;20097;-59
2021/12/03 01:01:04;;;;;;;58.97;36.17;;;;;;;0.01;100.00;100111.59;5089574;27;20461;-59
2021/12/03 01:03:30;;;;;;;58.45;38.15;;;;;;;-0.04;100.00;100100.47;5084536;27;20046;-59
2021/12/03 01:05:55;;;;;;;67.80;37.78;;;;;;;0.02;100.00;100100.41;5090729;27;20027;-59
2021/12/03 01:08:21;;;;;;;54.97;33.88;;;;;;;0.04;100.00;100106.38;5098791;27;20036;-59
2021/12/03 01:10:47;;;;;;;67.85;38.38;;;;;;;0.07;100.00;100110.69;5101791;27;20130;-59
2021/12/03 01:13:12;;;;;;;55.33;34.25;;;;;;;0.04;100.00;100106.38;5099700;27;20036;-59
2021/12/03 01:15:39;;;;;;;66.93;33.90;;;;;;;0.05;100.00;100107.25;5087910;28;20035;-59
2021/12/03 01:18:06;;;;;;;63.42;34.63;;;;;;;0.07;100.00;100110.69;5088735;27;20930;-59
2021/12/03 01:20:32;;;;;;;54.90;31.95;;;;;;;0.08;100.00;100109.78;5097780;27;20092;-59
2021/12/03 01:22:58;;;;;;;50.92;33.53;;;;;;;0.08;100.00;100107.19;5092865;27;20139;-59
2021/12/03 01:25:24;;;;;;;49.80;32.38;;;;;;;0.06;100.00;100108.97;5090767;27;20038;-59
2021/12/03 01:27:50;;;;;;;47.22;30.42;;;;;;;0.03;100.00;100109.00;5095882;27;20061;-59
2021/12/03 01:30:17;;;;;;;43.90;29.55;;;;;;;-0.03;100.00;100110.78;5087640;28;20023;-59
2021/12/03 01:32:43;;;;;;;46.88;32.30;;;;;;;-0.03;100.00;100109.91;5092740;27;20496;-59
2021/12/03 01:35:10;;;;;;;48.25;29.55;;;;;;;-0.08;100.00;100133.22;5090109;27;20036;-59
2021/12/03 01:37:36;;;;;;;49.03;29.90;;;;;;;-0.16;100.00;100122.13;5098013;27;20110;-59
2021/12/03 01:40:04;;;;;;;41.08;28.70;;;;;;;-0.15;100.00;100131.59;5103528;27;20053;-58
2021/12/03 01:42:29;;;;;;;45.10;29.67;;;;;;;-0.15;100.00;100130.72;5092479;27;20042;-59
2021/12/03 01:44:55;;;;;;;37.88;27.60;;;;;;;-0.16;100.00;100140.19;5090611;27;20027;-59
2021/12/03 01:47:20;;;;;;;43.55;25.92;;;;;;;-0.14;100.00;100130.72;5085453;27;20030;-59
2021/12/03 01:49:46;;;;;;;43.15;26.80;;;;;;;-0.14;100.00;100130.72;5086025;28;20034;-59
2021/12/03 01:52:11;;;;;;;36.25;24.85;;;;;;;-0.14;100.00;100127.28;5084723;27;20036;-58
2021/12/03 01:54:37;;;;;;;39.83;27.23;;;;;;;-0.15;100.00;100115.22;5104033;27;20607;-59
2021/12/03 01:57:02;;;;;;;39.28;25.92;;;;;;;-0.11;100.00;100122.06;5095795;27;20037;-59
2021/12/03 01:59:28;;;;;;;41.13;26.13;;;;;;;-0.08;100.00;100122.91;5080051;27;20193;-59
2021/12/03 02:01:53;;;;;;;41.15;27.20;;;;;;;-0.19;100.00;100086.00;5086234;27;20889;-59
2021/12/03 02:04:18;;;;;;;45.60;27.75;;;;;;;-0.08;100.00;100097.06;5085423;28;20091;-59
2021/12/03 02:06:44;;;;;;;39.25;27.33;;;;;;;0.07;100.00;100108.09;5084638;28;20032;-59
2021/12/03 02:09:10;;;;;;;44.05;26.75;;;;;;;0.11;100.00;100107.16;5086164;28;20050;-59
2021/12/03 02:11:36;;;;;;;46.03;27.52;;;;;;;0.14;100.00;100107.97;5100850;27;20104;-59
2021/12/03 02:14:02;;;;;;;37.28;26.80;;;;;;;0.17;100.00;100102.78;5105414;27;20066;-59
2021/12/03 02:16:27;;;;;;;43.67;28.15;;;;;;;0.10;100.00;100090.84;5080554;27;20028;-59
2021/12/03 02:18:53;;;;;;;47.22;29.10;;;;;;;0.27;100.00;100111.28;5068964;27;20030;-62
2021/12/03 02:21:20;;;;;;;42.28;27.85;;;;;;;0.30;100.00;100112.09;5090207;27;20039;-59
2021/12/03 02:23:46;;;;;;;52.55;31.90;;;;;;;0.31;100.00;100113.78;5090362;27;20031;-59
2021/12/03 02:26:13;;;;;;;54.20;31.10;;;;;;;0.34;100.00;100115.47;5099373;27;20039;-59
2021/12/03 02:28:42;;;;;;;59.67;34.00;;;;;;;0.36;100.00;100114.59;5098757;27;20039;-59
2021/12/03 02:31:09;;;;;;;60.78;35.60;;;;;;;0.37;100.00;100112.88;5092140;27;20136;-59
2021/12/03 02:33:35;;;;;;;57.05;36.58;;;;;;;0.28;100.00;100093.16;5081308;28;20756;-59
2021/12/03 02:36:00;;;;;;;61.55;34.22;;;;;;;0.42;100.00;100109.31;5080031;27;20050;-59
2021/12/03 02:38:26;;;;;;;60.35;37.35;;;;;;;0.43;100.00;100111.03;5089021;27;20035;-59
2021/12/03 02:40:53;;;;;;;63.22;36.30;;;;;;;0.45;100.00;100124.78;5090309;27;20035;-59
2021/12/03 02:43:19;;;;;;;63.65;36.58;;;;;;;0.48;100.00;100129.91;5090731;27;20024;-59
2021/12/03 02:45:45;;;;;;;59.55;37.25;;;;;;;0.50;100.00;100140.25;5089770;27;20844;-59
2021/12/03 02:48:11;;;;;;;63.58;37.42;;;;;;;0.35;100.00;100110.28;5084880;27;20027;-59
2021/12/03 02:50:37;;;;;;;70.43;38.13;;;;;;;0.56;100.00;100128.94;5070018;28;20030;-59
2021/12/03 02:53:03;;;;;;;70.47;38.20;;;;;;;0.59;100.00;100126.31;5085294;28;20032;-59
2021/12/03 02:55:29;;;;;;;62.70;38.35;;;;;;;0.58;100.00;100115.13;5075535;27;20031;-59
2021/12/03 02:57:55;;;;;;;74.68;38.83;;;;;;;0.62;100.00;100110.75;5093524;27;20027;-59
2021/12/03 03:00:22;;;;;;;67.22;37.92;;;;;;;0.64;100.00;100114.19;5088618;27;20023;-59
2021/12/03 03:02:48;;;;;;;81.22;41.35;;;;;;;0.67;100.00;100125.34;5096510;27;20555;-59
2021/12/03 03:05:15;;;;;;;73.38;39.72;;;;;;;0.67;100.00;100125.34;5085456;27;20043;-59
2021/12/03 03:07:41;;;;;;;72.10;39.42;;;;;;;0.69;100.00;100123.59;5093647;27;20983;-59
2021/12/03 03:10:10;;;;;;;68.32;41.08;;;;;;;0.70;100.00;100120.13;5077234;28;20036;-59
2021/12/03 03:12:36;;;;;;;62.78;41.40;;;;;;;0.40;100.00;100055.97;5101383;27;20034;-59
2021/12/03 03:15:01;;;;;;;67.57;41.15;;;;;;;0.73;100.00;100109.75;5101493;27;20279;-59
2021/12/03 03:17:29;;;;;;;70.45;40.70;;;;;;;0.75;100.00;100102.81;5086533;27;20966;-59
2021/12/03 03:19:55;;;;;;;72.70;41.53;;;;;;;0.78;100.00;100100.16;5096964;27;20899;-59
2021/12/03 03:22:21;;;;;;;77.00;39.08;;;;;;;0.79;100.00;100099.31;5083574;28;20031;-59
2021/12/03 03:24:47;;;;;;;68.50;41.22;;;;;;;0.80;100.00;100095.84;5086906;28;20024;-58
2021/12/03 03:27:14;;;;;;;69.53;39.83;;;;;;;0.81;100.00;100096.69;5076325;28;20085;-58
2021/12/03 03:29:41;;;;;;;69.57;38.65;;;;;;;0.85;100.00;100104.38;5080941;28;20031;-59
2021/12/03 03:32:07;;;;;;;73.03;44.08;;;;;;;0.88;100.00;100104.31;5075467;28;20036;-59
2021/12/03 03:34:33;;;;;;;73.55;41.08;;;;;;;0.87;100.00;100097.47;5078895;28;20116;-59
2021/12/03 03:36:58;;;;;;;76.50;42.72;;;;;;;0.89;100.00;100100.84;5073027;28;20751;-59
2021/12/03 03:39:24;;;;;;;80.30;42.08;;;;;;;0.90;100.00;100102.56;5081667;28;20034;-59
2021/12/03 03:41:49;;;;;;;92.18;44.10;;;;;;;0.92;100.00;100100.81;5081971;28;20134;-58
2021/12/03 03:44:16;;;;;;;76.28;42.42;;;;;;;0.93;100.00;100102.53;5083034;28;20036;-59
2021/12/03 03:46:42;;;;;;;81.22;42.53;;;;;;;0.81;100.00;100084.59;5098209;28;20072;-59
2021/12/03 03:49:08;;;;;;;74.18;39.38;;;;;;;0.79;100.00;100072.59;5075862;28;20138;-59
2021/12/03 03:51:33;;;;;;;71.25;40.05;;;;;;;0.96;100.00;100097.31;5097589;28;20031;-59
2021/12/03 03:53:59;;;;;;;70.22;39.35;;;;;;;0.98;100.00;100098.13;5082701;28;20482;-59
2021/12/03 03:56:25;;;;;;;65.53;38.67;;;;;;;0.99;100.00;100099.84;5098614;28;20535;-59
2021/12/03 03:58:50;;;;;;;66.68;38.30;;;;;;;1.00;100.00;100098.97;5083300;28;20038;-59
2021/12/03 04:01:15;;;;;;;60.47;37.63;;;;;;;1.00;100.00;100093.78;5087828;28;20047;-59
2021/12/03 04:03:45;;;;;;;62.33;37.28;;;;;;;1.03;100.00;100088.56;5098440;28;20030;-59
2021/12/03 04:06:11;;;;;;;58.20;35.10;;;;;;;1.05;100.00;100088.53;5093707;28;20035;-59
2021/12/03 04:08:37;;;;;;;65.07;35.83;;;;;;;0.99;100.00;100080.88;5088236;28;20027;-59
2021/12/03 04:11:03;;;;;;;60.22;36.75;;;;;;;1.06;100.00;100086.78;5092982;28;20081;-59
2021/12/03 04:13:28;;;;;;;70.93;37.63;;;;;;;1.07;100.00;100080.75;5061898;28;20032;-59
2021/12/03 04:15:54;;;;;;;63.42;35.88;;;;;;;1.07;100.00;100096.28;5083799;27;20134;-59
2021/12/03 04:18:20;;;;;;;64.78;36.92;;;;;;;1.07;100.00;100091.97;5084799;28;20276;-58
2021/12/03 04:20:45;;;;;;;65.40;34.67;;;;;;;1.09;100.00;100089.31;5085352;27;20100;-59
2021/12/03 04:23:16;;;;;;;63.10;35.00;;;;;;;1.09;100.00;100087.59;5105944;27;20031;-59
2021/12/03 04:25:42;;;;;;;59.80;34.22;;;;;;;1.11;100.00;100093.63;5104482;27;20046;-59
2021/12/03 04:28:07;;;;;;;58.83;33.72;;;;;;;1.12;100.00;100081.50;5097714;27;20067;-58
2021/12/03 04:30:33;;;;;;;55.15;31.40;;;;;;;1.13;100.00;100072.88;5071798;28;20082;-59
2021/12/03 04:32:59;;;;;;;55.05;32.75;;;;;;;1.14;100.00;100074.59;5097155;27;20027;-59
2021/12/03 04:35:25;;;;;;;53.25;30.75;;;;;;;1.13;100.00;100063.38;5083637;28;20041;-59
2021/12/03 04:37:51;;;;;;;55.50;30.45;;;;;;;1.14;100.00;100053.91;5083544;28;20028;-59
2021/12/03 04:40:18;;;;;;;53.75;29.40;;;;;;;1.13;100.00;100055.63;5079934;28;20024;-58
2021/12/03 04:42:43;;;;;;;52.38;26.90;;;;;;;0.96;100.00;100035.22;5082774;28;20028;-59
2021/12/03 04:45:10;;;;;;;51.63;27.17;;;;;;;1.06;100.00;100056.63;5086779;27;20137;-59
2021/12/03 04:47:36;;;;;;;44.15;24.20;;;;;;;1.09;100.00;100061.72;5074462;27;20023;-59
2021/12/03 04:50:04;;;;;;;50.47;25.83;;;;;;;1.02;100.00;100055.81;5093727;27;20027;-59
2021/12/03 04:52:30;;;;;;;54.88;26.48;;;;;;;0.83;100.00;100028.56;5094356;27;20032;-59
2021/12/03 04:54:55;;;;;;;51.90;23.30;;;;;;;1.00;100.00;100052.41;5082293;27;20063;-58
2021/12/03 04:57:21;;;;;;;43.85;25.08;;;;;;;0.96;100.00;100068.84;5087684;27;20031;-59
2021/12/03 04:59:46;;;;;;;39.50;23.02;;;;;;;0.94;100.00;100072.34;5085102;28;20020;-59
2021/12/03 05:02:12;;;;;;;47.92;23.50;;;;;;;0.78;100.00;100056.22;5079348;27;20041;-58
2021/12/03 05:04:38;;;;;;;42.38;22.65;;;;;;;0.87;100.00;100079.34;5100154;27;20122;-59
2021/12/03 05:09:34;;;;;;;41.58;22.80;;;;;;;0.81;100.00;100089.78;5100397;27;20047;-58
2021/12/03 05:12:00;;;;;;;32.35;21.20;;;;;;;0.77;100.00;100080.38;5096064;27;20152;-59
2021/12/03 05:14:26;;;;;;;40.72;21.55;;;;;;;0.76;100.00;100083.84;5098240;27;20027;-59
2021/12/03 05:16:51;;;;;;;47.63;20.77;;;;;;;0.76;100.00;100078.66;5084462;27;20028;-59
2021/12/03 05:19:17;;;;;;;34.67;18.67;;;;;;;0.74;100.00;100093.38;5093829;27;20084;-59
2021/12/03 05:21:43;;;;;;;38.45;18.73;;;;;;;0.72;100.00;100081.31;5087479;27;20118;-58
2021/12/03 05:24:09;;;;;;;37.33;19.27;;;;;;;0.70;100.00;100076.19;5081958;28;20050;-58
2021/12/03 05:26:35;;;;;;;42.00;18.83;;;;;;;0.72;100.00;100070.97;5092272;27;20468;-58
2021/12/03 05:29:02;;;;;;;43.08;18.30;;;;;;;0.72;100.00;100076.16;5072528;27;21473;-58
2021/12/03 05:31:27;;;;;;;34.38;17.38;;;;;;;0.71;100.00;100075.28;5094483;27;20129;-58
2021/12/03 05:33:53;;;;;;;34.45;17.85;;;;;;;0.69;100.00;100071.03;5083969;28;20880;-58
2021/12/03 05:36:18;;;;;;;35.42;16.52;;;;;;;0.67;100.00;100068.47;5082979;28;20453;-58
2021/12/03 05:38:44;;;;;;;45.13;17.90;;;;;;;0.68;100.00;100070.16;5092118;27;20071;-58
2021/12/03 05:41:09;;;;;;;30.58;16.30;;;;;;;0.67;100.00;100073.66;5083331;27;20071;-58
2021/12/03 05:43:34;;;;;;;35.67;16.33;;;;;;;0.67;100.00;100073.66;5069570;28;20085;-58
2021/12/03 05:46:00;;;;;;;26.30;14.93;;;;;;;0.68;100.00;100075.34;5074566;27;20047;-58
2021/12/03 05:48:25;;;;;;;30.30;15.88;;;;;;;0.67;100.00;100078.81;5097142;27;20544;-58
2021/12/03 05:50:51;;;;;;;40.33;17.23;;;;;;;0.64;100.00;100075.44;5101170;27;20031;-58
2021/12/03 05:53:16;;;;;;;37.03;15.65;;;;;;;0.60;100.00;100082.38;5079010;27;20028;-58
2021/12/03 05:55:42;;;;;;;36.88;16.27;;;;;;;0.58;100.00;100075.50;5081723;27;20025;-58
2021/12/03 05:58:08;;;;;;;34.53;15.18;;;;;;;0.54;100.00;100074.72;5080327;27;20028;-58
2021/12/03 06:00:38;;;;;;;33.13;14.82;;;;;;;0.51;100.00;100077.31;5068797;27;20901;-58
2021/12/03 06:03:04;;;;;;;30.88;15.10;;;;;;;0.44;100.00;100065.38;5093244;27;20031;-58
2021/12/03 06:05:30;;;;;;;27.90;14.57;;;;;;;0.05;100.00;100019.44;5090264;27;20081;-58
2021/12/03 06:07:56;;;;;;;30.60;14.57;;;;;;;0.38;100.00;100075.78;5101413;27;20062;-58
2021/12/03 06:10:22;;;;;;;36.25;14.48;;;;;;;0.34;100.00;100074.97;5086985;28;20085;-58
2021/12/03 06:12:48;;;;;;;38.13;15.93;;;;;;;0.39;100.00;100072.34;5089038;27;20030;-58
2021/12/03 06:15:15;;;;;;;39.75;15.25;;;;;;;0.35;100.00;100073.25;5077324;28;20560;-58
2021/12/03 06:17:40;;;;;;;30.58;13.98;;;;;;;0.36;100.00;100073.25;5087854;28;20065;-58
2021/12/03 06:20:07;;;;;;;32.65;14.60;;;;;;;0.37;100.00;100068.94;5069010;28;20036;-58
2021/12/03 06:22:33;;;;;;;24.73;13.02;;;;;;;0.36;100.00;100072.38;5081826;28;20031;-58
2021/12/03 06:24:58;;;;;;;24.75;12.35;;;;;;;0.34;100.00;100063.78;5069363;27;20035;-58
2021/12/03 06:27:25;;;;;;;35.08;13.85;;;;;;;0.32;100.00;100068.13;5083569;28;20602;-58
2021/12/03 06:29:51;;;;;;;32.00;12.10;;;;;;;0.31;100.00;100074.16;5082658;28;20077;-58
2021/12/03 06:32:17;;;;;;;22.35;10.98;;;;;;;0.30;100.00;100068.16;5057651;28;20031;-58
2021/12/03 06:34:42;;;;;;;34.85;11.25;;;;;;;0.33;100.00;100067.25;5092713;27;20058;-58
2021/12/03 06:37:09;;;;;;;26.98;11.15;;;;;;;0.35;100.00;100061.19;5088730;27;20032;-58
2021/12/03 06:39:35;;;;;;;30.20;11.55;;;;;;;0.35;100.00;100061.19;5081333;27;20042;-58
2021/12/03 06:42:00;;;;;;;33.88;10.43;;;;;;;0.41;100.00;100065.41;5089969;27;20038;-58
2021/12/03 06:44:26;;;;;;;21.52;10.75;;;;;;;0.44;100.00;100062.81;5074465;27;20130;-58
2021/12/03 06:46:53;;;;;;;31.52;10.25;;;;;;;0.45;100.00;100059.31;5067025;28;20055;-58
2021/12/03 06:49:19;;;;;;;19.10;9.68;;;;;;;0.44;100.00;100073.16;5066539;27;20039;-58
2021/12/03 06:51:45;;;;;;;24.63;9.55;;;;;;;0.46;100.00;100064.47;5065355;28;20043;-58
2021/12/03 06:54:11;;;;;;;25.02;10.32;;;;;;;0.49;100.00;100066.16;5065210;28;20059;-58
2021/12/03 06:56:51;;;;;;;21.52;9.20;;;;;;;0.53;100.00;100070.41;5058759;28;20020;-58
2021/12/03 06:59:19;;;;;;;20.90;8.73;;;;;;;0.55;100.00;100063.47;5032172;28;20131;-58
2021/12/03 07:01:45;;;;;;;26.60;9.52;;;;;;;0.56;100.00;100065.19;5056350;27;20084;-58
2021/12/03 07:04:11;;;;;;;26.23;9.48;;;;;;;0.59;100.00;100065.16;5067373;27;20036;-58
2021/12/03 07:06:37;;;;;;;18.85;8.85;;;;;;;0.61;100.00;100058.22;5069224;27;20023;-58
2021/12/03 07:09:03;;;;;;;25.67;9.00;;;;;;;0.64;100.00;100059.91;5070510;27;20038;-58
2021/12/03 07:11:28;;;;;;;20.10;9.63;;;;;;;0.67;100.00;100055.56;5067623;28;20074;-58
2021/12/03 07:13:54;;;;;;;27.25;9.93;;;;;;;0.68;100.00;100053.78;5066493;28;20027;-58
2021/12/03 07:16:19;;;;;;;19.75;10.00;;;;;;;0.68;100.00;100049.47;5065837;28;20024;-58
2021/12/03 07:18:44;;;;;;;23.75;10.25;;;;;;;0.66;100.00;100055.56;5066549;28;20027;-58
2021/12/03 07:21:10;;;;;;;26.50;10.55;;;;;;;0.63;100.00;100048.72;5073297;27;20031;-58
2021/12/03 07:23:36;;;;;;;28.23;9.77;;;;;;;0.69;100.00;100051.19;5081626;27;20055;-58
2021/12/03 07:26:02;;;;;;;25.77;9.80;;;;;;;0.69;100.00;100052.94;5061699;28;20149;-58
2021/12/03 07:28:28;;;;;;;21.98;9.68;;;;;;;0.48;100.00;100036.00;5056976;28;20033;-58
2021/12/03 07:30:53;;;;;;;27.08;10.50;;;;;;;0.65;100.00;100059.00;5069936;28;20051;-58
2021/12/03 07:33:19;;;;;;;23.75;9.88;;;;;;;0.61;100.00;100047.03;5062065;28;20965;-58
2021/12/03 07:35:45;;;;;;;26.17;10.30;;;;;;;0.41;100.00;100034.41;5072056;28;20032;-58
2021/12/03 07:38:12;;;;;;;17.35;9.75;;;;;;;0.57;100.00;100061.75;5046070;28;20089;-58
2021/12/03 07:40:37;;;;;;;25.65;10.10;;;;;;;0.57;100.00;100053.13;5053289;28;20031;-58
2021/12/03 07:43:03;;;;;;;25.20;10.65;;;;;;;0.59;100.00;100057.41;5061762;28;20807;-58
2021/12/03 07:45:29;;;;;;;23.95;10.13;;;;;;;0.58;100.00;100055.69;5084314;28;20027;-59
2021/12/03 07:47:54;;;;;;;15.63;9.85;;;;;;;0.60;100.00;100056.53;5058132;28;20023;-58
2021/12/03 07:50:20;;;;;;;25.88;9.55;;;;;;;0.58;100.00;100047.91;5081356;27;20089;-58
2021/12/03 07:52:45;;;;;;;25.75;10.30;;;;;;;0.61;100.00;100047.88;5087238;27;20083;-58
2021/12/03 07:55:11;;;;;;;23.38;10.13;;;;;;;0.61;100.00;100034.94;5053984;28;20030;-58
2021/12/03 07:57:36;;;;;;;35.38;10.23;;;;;;;0.65;100.00;100053.84;5071001;28;20019;-58
2021/12/03 08:00:04;;;;;;;23.90;10.60;;;;;;;0.73;100.00;100052.88;5070997;28;20027;-58
2021/12/03 08:02:29;;;;;;;22.23;9.82;;;;;;;0.78;100.00;100066.56;5069985;28;20023;-58
2021/12/03 08:04:55;;;;;;;25.77;10.15;;;;;;;0.85;100.00;100068.16;5071372;28;20044;-58
2021/12/03 08:07:20;;;;;;;23.02;9.43;;;;;;;0.94;100.00;100062.88;5070484;28;20047;-58
2021/12/03 08:09:46;;;;;;;30.75;10.30;;;;;;;1.05;100.00;100067.84;5071386;28;20313;-58
2021/12/03 08:12:12;;;;;;;34.22;9.52;;;;;;;1.16;100.00;100068.50;5070978;28;20030;-58
2021/12/03 08:14:37;;;;;;;25.00;8.43;;;;;;;1.26;100.00;100066.59;5064829;28;20113;-59
2021/12/03 08:17:03;;;;;;;16.35;7.70;;;;;;;1.11;100.00;100033.25;5051257;28;20063;-58
2021/12/03 08:19:28;;;;;;;18.52;7.55;;;;;;;1.38;100.00;100063.81;5069098;28;20016;-58
2021/12/03 08:21:53;;;;;;;19.70;8.02;;;;;;;1.43;100.00;100056.81;5070512;28;20841;-58
2021/12/03 08:24:19;;;;;;;17.88;8.30;;;;;;;1.47;100.00;100053.28;5070654;28;20038;-59
2021/12/03 08:26:44;;;;;;;14.20;7.60;;;;;;;1.53;100.00;100053.16;5071892;28;20059;-58
2021/12/03 08:29:10;;;;;;;21.42;8.10;;;;;;;1.54;100.00;100047.09;5069559;28;20066;-58
2021/12/03 08:31:37;;;;;;;15.52;7.38;;;;;;;1.60;100.00;100039.22;5068049;28;20889;-59
2021/12/03 08:34:03;;;;;;;16.60;7.53;;;;;;;1.61;100.00;100047.84;5068341;28;20027;-59
2021/12/03 08:36:28;;;;;;;14.63;7.38;;;;;;;1.63;100.00;100043.47;5069167;28;20093;-59
2021/12/03 08:38:53;;;;;;;16.77;6.95;;;;;;;1.67;100.00;100043.38;5068819;28;20807;-59
2021/12/03 08:41:19;;;;;;;16.90;6.80;;;;;;;1.67;100.00;100048.56;5064521;28;20062;-59
2021/12/03 08:43:46;;;;;;;19.92;6.22;;;;;;;1.60;100.00;100033.19;5068356;27;20023;-58
2021/12/03 08:46:18;;;;;;;24.58;6.43;;;;;;;1.74;100.00;100046.72;5068537;28;20104;-59
2021/12/03 08:48:46;;;;;;;13.88;5.85;;;;;;;1.74;100.00;100038.94;5062975;28;20081;-58
2021/12/03 08:56:28;;;;;;;19.65;7.40;;;;;;;1.88;100.00;100049.88;5067395;28;20815;-59
2021/12/03 08:58:53;;;;;;;17.60;7.88;;;;;;;1.90;100.00;100043.78;5068683;28;20024;-59
2021/12/03 09:01:19;;;;;;;19.55;7.57;;;;;;;1.90;100.00;100041.19;5060517;28;20039;-58
2021/12/03 09:03:44;;;;;;;16.15;6.43;;;;;;;1.93;100.00;100053.22;5066563;28;20910;-59
2021/12/03 09:06:10;;;;;;;16.08;6.57;;;;;;;1.78;100.00;100007.78;5065154;28;20125;-58
2021/12/03 09:08:35;;;;;;;13.43;6.50;;;;;;;1.98;100.00;100036.69;5068509;27;20015;-59
2021/12/03 09:11:01;;;;;;;17.48;7.00;;;;;;;2.00;100.00;100028.88;5054727;28;20924;-59
2021/12/03 09:13:26;;;;;;;18.40;7.03;;;;;;;1.83;100.00;100005.94;5066856;28;20046;-59
2021/12/03 09:16:05;;;;;;;31.83;7.07;;;;;;;1.93;100.00;100011.75;5080223;27;20080;-60
2021/12/03 09:21:09;;;;;;;19.27;6.40;;;;;;;2.24;100.00;100028.34;5071913;27;21003;-59
2021/12/03 09:23:42;;;;;;;15.85;6.38;;;;;;;2.31;100.00;100034.25;5064901;28;20143;-59
2021/12/03 09:26:13;;;;;;;13.88;6.18;;;;;;;2.35;100.00;100041.06;5057850;28;20885;-59
2021/12/03 09:28:41;;;;;;;11.77;6.35;;;;;;;2.31;100.00;100035.09;5065822;27;20093;-59
2021/12/03 09:31:09;;;;;;;18.67;6.57;;;;;;;2.32;100.00;100036.81;5068803;27;20034;-59
2021/12/03 09:33:36;;;;;;;14.30;6.43;;;;;;;2.34;100.00;100044.53;5084611;27;20047;-59
2021/12/03 09:36:03;;;;;;;18.02;5.95;;;;;;;2.14;100.00;100010.44;5071021;27;20091;-59
2021/12/03 09:38:34;;;;;;;14.07;6.20;;;;;;;2.31;100.00;100044.63;5055068;28;20025;-59
2021/12/03 09:41:06;;;;;;;18.33;6.20;;;;;;;2.41;100.00;100056.47;5067269;28;20051;-59
2021/12/03 09:43:34;;;;;;;15.75;6.93;;;;;;;2.34;100.00;100047.13;5068244;28;20019;-59
2021/12/03 09:46:08;;;;;;;13.48;6.28;;;;;;;2.28;100.00;100047.28;5068019;28;20130;-59
2021/12/03 09:48:55;;;;;;;;;;;;;;;2.22;100.00;100039.66;5067500;28;20102;-58
2021/12/03 09:51:19;;;;;;;15.95;6.25;;;;;;;2.19;100.00;100050.94;5065320;28;19912;-58
2021/12/03 09:56:31;;;;;;;14.68;6.63;;;;;;;2.09;100.00;100033.88;5055735;28;20038;-58
2021/12/03 10:14:51;;;;;;;23.67;7.38;;;;;;;2.63;100.00;99982.50;5044911;28;20034;-58
2021/12/03 10:20:12;;;;;;;22.75;6.63;;;;;;;2.55;100.00;99992.19;5058091;28;20051;-58
2021/12/03 10:41:44;;;;;;;15.82;6.63;;;;;;;2.77;100.00;99951.03;5056745;28;20071;-58
2021/12/03 10:44:22;;;;;;;23.45;8.63;;;;;;;2.88;100.00;99934.28;5061973;28;20221;-58
2021/12/03 11:01:00;;;;;;;13.65;7.90;;;;;;;3.01;100.00;99842.22;5079350;27;20725;-58
2021/12/03 11:12:05;;;;;;;13.98;7.43;;;;;;;3.70;100.00;99867.00;5081713;28;20076;-58
2021/12/03 11:53:11;;;;;;;11.25;5.72;;;;;;;4.16;100.00;99806.59;5071566;28;20092;-58
2021/12/03 12:14:11;;;;;;;11.32;5.32;;;;;;;4.21;100.00;99759.66;5065376;28;20047;-59
2021/12/03 14:00:00;;;;;;;14.10;4.28;;;;;;;3.48;100.00;99638.28;5070052;28;20410;-59
2021/12/03 14:43:21;;;;;;;6.72;4.35;;;;;;;2.82;100.00;99592.03;5068442;27;20810;-59
2021/12/03 14:46:11;;;;;;;10.05;4.32;;;;;;;2.77;100.00;99588.72;5080999;27;20067;-59
2021/12/03 14:51:38;;;;;;;11.63;4.63;;;;;;;2.76;100.00;99584.47;5063319;27;20050;-59
2021/12/03 14:57:30;;;;;;;5.30;3.80;;;;;;;2.72;100.00;99569.88;5046428;27;20046;-59
2021/12/03 15:00:53;;;;;;;10.18;4.22;;;;;;;2.73;100.00;99571.59;5068428;27;20456;-59
2021/12/03 15:08:35;;;;;;;7.22;3.85;;;;;;;3.00;100.00;99580.22;5033852;28;20028;-59
2021/12/03 15:22:01;;;;;;;4.65;3.03;;;;;;;3.25;100.00;99569.84;5079067;27;20898;-60
2021/12/03 15:35:09;;;;;;;6.00;2.95;;;;;;;2.80;100.00;99461.56;5068308;28;20092;-59
2021/12/03 15:54:47;;;;;;;5.07;2.55;;;;;;;3.27;100.00;99518.75;5066182;28;20551;-60
2021/12/03 16:05:24;;;;;;;3.63;2.53;;;;;;;3.25;100.00;99534.38;5070577;28;20180;-59
2021/12/03 16:08:03;;;;;;;6.60;2.65;;;;;;;3.24;100.00;99524.06;5073343;28;20093;-59
2021/12/03 16:10:58;;;;;;;6.35;2.22;;;;;;;3.01;100.00;99498.88;5057484;28;20035;-59
2021/12/03 16:13:28;;;;;;;2.95;1.67;;;;;;;3.19;100.00;99533.75;5067264;28;20779;-59
2021/12/03 16:16:33;;;;;;;7.25;2.42;;;;;;;3.16;100.00;99523.47;5055348;28;20046;-59
2021/12/03 16:24:31;;;;;;;3.75;1.88;;;;;;;3.15;100.00;99516.56;5069734;28;20050;-59
2021/12/03 16:46:56;;;;;;;4.85;1.73;;;;;;;2.93;100.00;99491.38;5051909;28;20997;-60
2021/12/03 16:54:11;;;;;;;4.97;1.70;;;;;;;2.58;100.00;99432.06;5077020;27;20036;-59
2021/12/03 16:56:42;;;;;;;3.20;1.77;;;;;;;2.87;100.00;99482.97;5076228;28;20069;-58
2021/12/03 16:59:08;;;;;;;4.60;1.70;;;;;;;2.86;100.00;99484.69;5088278;27;20122;-59
2021/12/03 17:01:45;;;;;;;4.25;2.00;;;;;;;2.81;100.00;99477.94;5074477;27;20841;-59
2021/12/03 17:14:22;;;;;;;4.10;1.50;;;;;;;2.84;100.00;99488.25;5055223;28;20036;-59
2021/12/03 17:30:32;;;;;;;;;;;;;;;2.83;100.00;99479.63;5067287;28;20031;-59
2021/12/03 17:49:36;;;;;;;4.05;1.02;;;;;;;2.78;100.00;99421.00;5064099;28;20437;-60
2021/12/03 17:59:50;;;;;;;2.25;1.02;;;;;;;2.43;100.00;99349.63;5067439;28;20823;-59
2021/12/03 18:55:52;;;;;;;2.42;1.10;;;;;;;2.74;100.00;99352.81;5103217;27;20101;-57